Ten Mile, TN

10:44 AM EDT on May 06, 2015 (GMT -0400)
Irwinton shores | | Change Station
CLOSE
Current Station
Personal Weather Station
Location: Ten Mile, TN
Elevation: 791 ft
Nearby Weather Stations

Elev 791 ft 35.75 °N, 84.67 °W | Updated 6 minutes ago

Clear
Clear
69.4 °F
Feels Like 69.4 °F
N
0.4
Wind Variable Wind from North
Gusts 2.5 mph

Today
High -- | Low -- °F
--% Chance of Precip.
Yesterday
High -- | Low -- °F
Precip. -- in
6:41 AM 8:29 PM
Waning Gibbous, 94% visible
Pressure 30.22 in
Visibility 10.0 miles
Clouds Clear
Dew Point 55 °F
Humidity 61%
Rainfall 0.00 in
Snow Depth Not available.
UV 2.0 out of 12
Pollen 8.10 out of 12
Air Quality Not available.
Flu Activity Sporadic
METAR KCSV 061353Z AUTO VRB05KT 10SM CLR 22/11 A3027 RMK AO2 SLP234 T02220106

More Conditions Fewer Conditions

Pressure 30.22 in
Visibility 10.0 miles
Clouds Clear
Dew Point 55 °F
Humidity 61%
Rainfall 0.00 in
Snow Depth Not available.
UV 2.0 out of 12
Pollen 8.10 out of 12
Air Quality Not available.
Flu Activity Sporadic
METAR KCSV 061353Z AUTO VRB05KT 10SM CLR 22/11 A3027 RMK AO2 SLP234 T02220106

More Conditions Fewer Conditions

10-Day Weather Forecast

Almanac

Astronomy

May. 06, 2015 Rise Set
Actual Time
Civil Twilight
Nautical Twilight
Astronomical Twilight
Moon
Length of Visible Light
Length of Day
Tomorrow will be .
, % of the Moon is Illuminated

Today's Extremes

State Highs State Lows

Community

WunderPhotos

Upload Photos

1,818,920 photos uploaded!

WunderBlogs® & News

Nearby

Air Quality

  Air Quality AQ Index Pollutant
Not available.

Snow Depth

Station Depth Elevation

Earthquake Activity

City Distance Mag. Time & Date
Minimum magnitude displayed is 2.5.

Coastal Water Temperatures

Place Temperature

Stations

Nearby Weather Stations

Station Location Temp. Windchill Dew Point Humidity Wind Precip. Elev Updated Type